Impacts TAF Board
For situational awareness. Not to be used for flight planning purposes.
IDs:

KTEX - Telluride Rgnl, CO, US

Issued at 1131 UTC 30 Oct 2020
Updated at 1651 UTC 30 Oct 2020
Potential Impact None Slight Moderate High
Time1635Z 30/17Z 30/18Z 30/19Z 30/20Z 30/21Z 30/22Z 30/23Z 31/00Z 31/01Z 31/02Z 31/03Z 31/04Z 31/05Z>>
Type OBS PRVL PRVL PRVL PRVL PRVL PRVL PRVL PRVL PRVL PRVL PRVL PRVL PRVL
VIS 10 >6 >6 >6 >6 >6 >6 >6 >6 >6 >6 >6 >6 >6
CIG -- -- -- -- -- -- -- -- -- -- -- -- -- --
Cover CLR SKC SKC SKC SKC SKC SKC SKC SKC SKC SKC SKC SKC SKC
FltCat VFR VFR VFR VFR VFR VFR VFR VFR VFR VFR VFR VFR VFR VFR
WX -- -- -- -- -- -- -- -- -- -- -- -- -- --
WDir VRB 140 270 270 270 270 270 270 270 270 130 130 130 130
WSpd 0 4 10 10 10 10 10 10 10 10 4 4 4 4
WGst -- -- 15 15 15 15 15 15 15 15 -- -- -- --
Raw TAF
KTEX 301131Z 3012/3112 14004KT P6SM SKC
  FM301800 27010G15KT P6SM SKC
  FM310200 13004KT P6SM SKC


Raw METAR
KTEX 301635Z AUTO 00000KT 10SM CLR 06/M06 A3040 RMK AO2
KTEX 301615Z AUTO 00000KT 10SM CLR 05/M06 A3041 RMK AO2
KTEX 301555Z AUTO 00000KT 10SM CLR 04/M05 A3042 RMK AO2
KTEX 301535Z AUTO 00000KT 10SM CLR 02/M05 A3042 RMK AO2
KTEX 301515Z AUTO 11003KT 10SM CLR 02/M05 A3042 RMK AO2
KTEX 301455Z AUTO 13004KT 10SM CLR 01/M04 A3041 RMK AO2
KTEX 301435Z AUTO 13004KT 10SM CLR 00/M05 A3040 RMK AO2
KTEX 301415Z AUTO 13004KT 10SM CLR 00/M05 A3040 RMK AO2
KTEX 301355Z AUTO 14004KT 10SM CLR 00/M05 A3040 RMK AO2
KTEX 301335Z AUTO 15005KT 10SM CLR 00/M05 A3039 RMK AO2

METAR Board
Radar Display
Forecast Discussion
For situational awareness. Not to be used for flight planning purposes.